KLAW/LAW METAR and TAF weather

Enter ICAO airport designator
Station Type Date Time Source
KLAW METAR 2020/11/27 13:53 UTC NOAA

KLAW 271353Z 01009KT 10SM CLR 05/01 A3018 RMK AO2 SLP222 T00500011


Station Type Date Time Source
KLAW Decoded METAR 2020/11/27 13:53 UTC NOAA

LAWTON - FORT SILL REGIONAL, OK, United States (KLAW) 34-34N 98-25W 337M
Nov 27, 2020 - 08:53 AM EST / 2020.11.27 1353 UTC
Wind: from the N (010 degrees) at 10 MPH (9 KT):0
Visibility: 10 mile(s):0
Sky conditions: clear
Temperature: 41.0 F (5.0 C)
Dew Point: 34.0 F (1.1 C)
Relative Humidity: 75%
Pressure (altimeter): 30.18 in. Hg (1022 hPa)
ob: KLAW 271353Z 01009KT 10SM CLR 05/01 A3018 RMK AO2 SLP222 T00500011
cycle: 14

Station Type Date Time Source
KLAW TAF 2020/11/27 12:27 UTC NOAA

TAF KLAW 271124Z 2712/2812 01011G18KT P6SM FEW250
FM271900 02016G24KT P6SM FEW250
FM280000 03010G15KT P6SM FEW250
FM280800 02008KT P6SM SCT200

Example: see airport list